sensor_id;sensor_type;location;lat;lon;timestamp;P1;durP1;ratioP1;P2;durP2;ratioP2
49422;SDS011;36998;51.974;20.150;2022-09-09T00:00:11;15.98;;;6.60;;
49422;SDS011;36998;51.974;20.150;2022-09-09T00:02:39;12.40;;;6.97;;
49422;SDS011;36998;51.974;20.150;2022-09-09T00:08:03;12.52;;;6.22;;
49422;SDS011;36998;51.974;20.150;2022-09-09T00:13:00;13.40;;;6.40;;
49422;SDS011;36998;51.974;20.150;2022-09-09T00:15:54;14.85;;;6.65;;
49422;SDS011;36998;51.974;20.150;2022-09-09T00:18:31;17.20;;;6.95;;
49422;SDS011;36998;51.974;20.150;2022-09-09T00:21:05;15.35;;;6.65;;
49422;SDS011;36998;51.974;20.150;2022-09-09T00:23:39;15.48;;;6.88;;
49422;SDS011;36998;51.974;20.150;2022-09-09T00:26:32;19.50;;;7.57;;
49422;SDS011;36998;51.974;20.150;2022-09-09T00:29:08;12.63;;;6.30;;
49422;SDS011;36998;51.974;20.150;2022-09-09T00:31:56;18.70;;;7.15;;
49422;SDS011;36998;51.974;20.150;2022-09-09T00:34:29;18.60;;;7.57;;
49422;SDS011;36998;51.974;20.150;2022-09-09T00:36:57;12.63;;;7.22;;
49422;SDS011;36998;51.974;20.150;2022-09-09T00:44:56;17.20;;;7.13;;
49422;SDS011;36998;51.974;20.150;2022-09-09T00:58:08;15.27;;;6.38;;
49422;SDS011;36998;51.974;20.150;2022-09-09T01:00:44;16.77;;;7.28;;
49422;SDS011;36998;51.974;20.150;2022-09-09T01:17:05;14.68;;;7.20;;
49422;SDS011;36998;51.974;20.150;2022-09-09T01:19:40;15.93;;;7.28;;
49422;SDS011;36998;51.974;20.150;2022-09-09T01:22:18;12.75;;;7.47;;
49422;SDS011;36998;51.974;20.150;2022-09-09T01:25:11;15.95;;;7.72;;
49422;SDS011;36998;51.974;20.150;2022-09-09T01:27:55;14.55;;;7.72;;
49422;SDS011;36998;51.974;20.150;2022-09-09T01:30:24;12.90;;;7.43;;
49422;SDS011;36998;51.974;20.150;2022-09-09T01:32:55;17.50;;;8.50;;
49422;SDS011;36998;51.974;20.150;2022-09-09T01:35:29;18.23;;;7.75;;
49422;SDS011;36998;51.974;20.150;2022-09-09T01:37:58;17.70;;;9.07;;
49422;SDS011;36998;51.974;20.150;2022-09-09T01:40:24;15.90;;;8.82;;
49422;SDS011;36998;51.974;20.150;2022-09-09T01:42:52;15.43;;;8.88;;
49422;SDS011;36998;51.974;20.150;2022-09-09T01:45:18;22.20;;;8.23;;
49422;SDS011;36998;51.974;20.150;2022-09-09T01:47:44;16.30;;;8.13;;
49422;SDS011;36998;51.974;20.150;2022-09-09T01:50:19;18.48;;;9.05;;
49422;SDS011;36998;51.974;20.150;2022-09-09T01:52:47;16.38;;;8.48;;
49422;SDS011;36998;51.974;20.150;2022-09-09T01:55:31;17.58;;;9.02;;
49422;SDS011;36998;51.974;20.150;2022-09-09T01:58:07;15.52;;;8.73;;
49422;SDS011;36998;51.974;20.150;2022-09-09T02:01:01;18.58;;;9.07;;
49422;SDS011;36998;51.974;20.150;2022-09-09T02:03:27;16.13;;;8.77;;
49422;SDS011;36998;51.974;20.150;2022-09-09T02:06:05;17.17;;;8.93;;
49422;SDS011;36998;51.974;20.150;2022-09-09T02:08:46;17.90;;;9.10;;
49422;SDS011;36998;51.974;20.150;2022-09-09T02:11:18;18.92;;;8.77;;
49422;SDS011;36998;51.974;20.150;2022-09-09T02:13:54;17.02;;;8.65;;
49422;SDS011;36998;51.974;20.150;2022-09-09T02:16:30;20.88;;;9.23;;
49422;SDS011;36998;51.974;20.150;2022-09-09T02:19:19;18.33;;;8.55;;
49422;SDS011;36998;51.974;20.150;2022-09-09T02:22:00;16.15;;;8.45;;
49422;SDS011;36998;51.974;20.150;2022-09-09T02:24:27;16.13;;;9.32;;
49422;SDS011;36998;51.974;20.150;2022-09-09T02:27:07;20.10;;;9.65;;
49422;SDS011;36998;51.974;20.150;2022-09-09T02:29:35;18.85;;;8.88;;
49422;SDS011;36998;51.974;20.150;2022-09-09T02:32:05;20.95;;;9.10;;
49422;SDS011;36998;51.974;20.150;2022-09-09T02:34:37;19.05;;;8.48;;
49422;SDS011;36998;51.974;20.150;2022-09-09T02:37:08;14.07;;;8.98;;
49422;SDS011;36998;51.974;20.150;2022-09-09T02:39:37;21.83;;;8.80;;
49422;SDS011;36998;51.974;20.150;2022-09-09T02:42:04;22.13;;;9.48;;
49422;SDS011;36998;51.974;20.150;2022-09-09T02:44:31;15.88;;;9.40;;
49422;SDS011;36998;51.974;20.150;2022-09-09T02:47:03;21.52;;;9.73;;
49422;SDS011;36998;51.974;20.150;2022-09-09T02:49:57;18.85;;;8.80;;
49422;SDS011;36998;51.974;20.150;2022-09-09T02:55:37;19.63;;;9.05;;
49422;SDS011;36998;51.974;20.150;2022-09-09T02:58:26;17.30;;;8.50;;
49422;SDS011;36998;51.974;20.150;2022-09-09T03:00:56;18.52;;;8.93;;
49422;SDS011;36998;51.974;20.150;2022-09-09T03:03:23;22.10;;;9.75;;
49422;SDS011;36998;51.974;20.150;2022-09-09T03:05:50;16.30;;;9.32;;
49422;SDS011;36998;51.974;20.150;2022-09-09T03:08:15;18.83;;;9.02;;
49422;SDS011;36998;51.974;20.150;2022-09-09T03:10:42;17.70;;;8.90;;
49422;SDS011;36998;51.974;20.150;2022-09-09T03:13:07;16.25;;;8.68;;
49422;SDS011;36998;51.974;20.150;2022-09-09T03:15:37;20.65;;;9.07;;
49422;SDS011;36998;51.974;20.150;2022-09-09T03:18:04;19.10;;;9.23;;
49422;SDS011;36998;51.974;20.150;2022-09-09T03:20:30;25.00;;;10.27;;
49422;SDS011;36998;51.974;20.150;2022-09-09T03:22:56;18.33;;;9.68;;
49422;SDS011;36998;51.974;20.150;2022-09-09T03:25:22;17.95;;;9.13;;
49422;SDS011;36998;51.974;20.150;2022-09-09T03:27:50;20.45;;;9.18;;
49422;SDS011;36998;51.974;20.150;2022-09-09T03:30:20;18.92;;;9.77;;
49422;SDS011;36998;51.974;20.150;2022-09-09T03:32:47;21.27;;;9.32;;
49422;SDS011;36998;51.974;20.150;2022-09-09T03:35:13;17.90;;;10.00;;
49422;SDS011;36998;51.974;20.150;2022-09-09T03:37:39;19.30;;;9.07;;
49422;SDS011;36998;51.974;20.150;2022-09-09T03:40:04;21.67;;;9.52;;
49422;SDS011;36998;51.974;20.150;2022-09-09T03:42:31;16.80;;;9.15;;
49422;SDS011;36998;51.974;20.150;2022-09-09T03:44:56;22.65;;;10.35;;
49422;SDS011;36998;51.974;20.150;2022-09-09T03:47:23;20.00;;;8.85;;
49422;SDS011;36998;51.974;20.150;2022-09-09T03:52:19;15.67;;;9.23;;
49422;SDS011;36998;51.974;20.150;2022-09-09T03:54:45;21.90;;;9.68;;
49422;SDS011;36998;51.974;20.150;2022-09-09T03:57:10;17.08;;;9.32;;
49422;SDS011;36998;51.974;20.150;2022-09-09T03:59:37;21.45;;;10.07;;
49422;SDS011;36998;51.974;20.150;2022-09-09T04:02:02;18.77;;;9.70;;
49422;SDS011;36998;51.974;20.150;2022-09-09T04:04:28;21.13;;;10.65;;
49422;SDS011;36998;51.974;20.150;2022-09-09T04:06:54;21.48;;;8.95;;
49422;SDS011;36998;51.974;20.150;2022-09-09T04:09:19;19.05;;;9.43;;
49422;SDS011;36998;51.974;20.150;2022-09-09T04:11:47;17.85;;;9.23;;
49422;SDS011;36998;51.974;20.150;2022-09-09T04:14:13;17.67;;;9.30;;
49422;SDS011;36998;51.974;20.150;2022-09-09T04:16:39;18.15;;;9.73;;
49422;SDS011;36998;51.974;20.150;2022-09-09T04:19:10;17.33;;;9.30;;
49422;SDS011;36998;51.974;20.150;2022-09-09T04:21:37;22.38;;;9.60;;
49422;SDS011;36998;51.974;20.150;2022-09-09T04:24:05;16.25;;;9.20;;
49422;SDS011;36998;51.974;20.150;2022-09-09T04:26:31;21.70;;;9.88;;
49422;SDS011;36998;51.974;20.150;2022-09-09T04:28:58;25.10;;;9.88;;
49422;SDS011;36998;51.974;20.150;2022-09-09T04:31:24;20.42;;;9.98;;
49422;SDS011;36998;51.974;20.150;2022-09-09T04:33:53;18.55;;;10.35;;
49422;SDS011;36998;51.974;20.150;2022-09-09T04:36:20;19.80;;;11.10;;
49422;SDS011;36998;51.974;20.150;2022-09-09T04:38:47;26.02;;;10.27;;
49422;SDS011;36998;51.974;20.150;2022-09-09T04:41:14;24.00;;;10.63;;
49422;SDS011;36998;51.974;20.150;2022-09-09T04:43:42;19.55;;;9.55;;
49422;SDS011;36998;51.974;20.150;2022-09-09T04:46:08;23.52;;;10.57;;
49422;SDS011;36998;51.974;20.150;2022-09-09T04:48:34;27.00;;;10.45;;
49422;SDS011;36998;51.974;20.150;2022-09-09T04:51:02;22.30;;;10.52;;
49422;SDS011;36998;51.974;20.150;2022-09-09T04:53:31;24.52;;;11.23;;
49422;SDS011;36998;51.974;20.150;2022-09-09T04:56:02;28.25;;;11.68;;
49422;SDS011;36998;51.974;20.150;2022-09-09T04:58:33;27.10;;;11.63;;
49422;SDS011;36998;51.974;20.150;2022-09-09T05:01:03;29.05;;;11.80;;
49422;SDS011;36998;51.974;20.150;2022-09-09T05:03:32;28.33;;;11.50;;
49422;SDS011;36998;51.974;20.150;2022-09-09T05:06:09;29.63;;;12.70;;
49422;SDS011;36998;51.974;20.150;2022-09-09T05:08:37;27.67;;;11.40;;
49422;SDS011;36998;51.974;20.150;2022-09-09T05:11:24;33.33;;;12.07;;
49422;SDS011;36998;51.974;20.150;2022-09-09T05:13:53;27.73;;;11.48;;
49422;SDS011;36998;51.974;20.150;2022-09-09T05:16:19;27.30;;;11.30;;
49422;SDS011;36998;51.974;20.150;2022-09-09T05:18:46;23.20;;;11.25;;
49422;SDS011;36998;51.974;20.150;2022-09-09T05:21:12;32.92;;;11.50;;
49422;SDS011;36998;51.974;20.150;2022-09-09T05:23:39;25.17;;;10.88;;
49422;SDS011;36998;51.974;20.150;2022-09-09T05:26:05;28.55;;;12.98;;
49422;SDS011;36998;51.974;20.150;2022-09-09T05:28:36;26.27;;;10.88;;
49422;SDS011;36998;51.974;20.150;2022-09-09T05:31:05;27.85;;;12.77;;
49422;SDS011;36998;51.974;20.150;2022-09-09T05:33:36;28.02;;;11.80;;
49422;SDS011;36998;51.974;20.150;2022-09-09T05:36:04;30.17;;;12.88;;
49422;SDS011;36998;51.974;20.150;2022-09-09T05:38:32;29.10;;;12.07;;
49422;SDS011;36998;51.974;20.150;2022-09-09T05:40:59;20.15;;;11.25;;
49422;SDS011;36998;51.974;20.150;2022-09-09T05:43:25;26.35;;;11.48;;
49422;SDS011;36998;51.974;20.150;2022-09-09T05:46:02;28.45;;;11.68;;
49422;SDS011;36998;51.974;20.150;2022-09-09T05:48:30;33.72;;;12.15;;
49422;SDS011;36998;51.974;20.150;2022-09-09T05:50:57;30.15;;;11.73;;
49422;SDS011;36998;51.974;20.150;2022-09-09T05:53:25;31.63;;;12.07;;
49422;SDS011;36998;51.974;20.150;2022-09-09T05:56:01;37.70;;;12.70;;
49422;SDS011;36998;51.974;20.150;2022-09-09T05:58:34;27.40;;;11.95;;
49422;SDS011;36998;51.974;20.150;2022-09-09T06:01:05;29.10;;;11.85;;
49422;SDS011;36998;51.974;20.150;2022-09-09T06:03:36;26.52;;;12.70;;
49422;SDS011;36998;51.974;20.150;2022-09-09T06:06:05;24.20;;;11.77;;
49422;SDS011;36998;51.974;20.150;2022-09-09T06:08:35;28.50;;;12.60;;
49422;SDS011;36998;51.974;20.150;2022-09-09T06:11:04;23.45;;;13.68;;
49422;SDS011;36998;51.974;20.150;2022-09-09T06:13:32;32.03;;;14.35;;
49422;SDS011;36998;51.974;20.150;2022-09-09T06:15:58;38.25;;;15.30;;
49422;SDS011;36998;51.974;20.150;2022-09-09T06:18:24;35.53;;;14.40;;
49422;SDS011;36998;51.974;20.150;2022-09-09T06:20:53;32.95;;;14.70;;
49422;SDS011;36998;51.974;20.150;2022-09-09T06:23:30;30.85;;;14.57;;
49422;SDS011;36998;51.974;20.150;2022-09-09T06:26:06;30.23;;;13.90;;
49422;SDS011;36998;51.974;20.150;2022-09-09T06:28:35;30.00;;;13.83;;
49422;SDS011;36998;51.974;20.150;2022-09-09T06:31:03;29.85;;;15.00;;
49422;SDS011;36998;51.974;20.150;2022-09-09T06:33:31;34.88;;;17.00;;
49422;SDS011;36998;51.974;20.150;2022-09-09T06:35:58;35.72;;;15.23;;
49422;SDS011;36998;51.974;20.150;2022-09-09T06:38:24;32.53;;;14.43;;
49422;SDS011;36998;51.974;20.150;2022-09-09T06:40:51;41.92;;;16.00;;
49422;SDS011;36998;51.974;20.150;2022-09-09T06:43:21;36.55;;;16.02;;
49422;SDS011;36998;51.974;20.150;2022-09-09T06:45:57;35.65;;;13.27;;
49422;SDS011;36998;51.974;20.150;2022-09-09T06:48:28;40.83;;;14.50;;
49422;SDS011;36998;51.974;20.150;2022-09-09T06:51:07;43.90;;;18.35;;
49422;SDS011;36998;51.974;20.150;2022-09-09T06:53:35;36.53;;;17.58;;
49422;SDS011;36998;51.974;20.150;2022-09-09T06:56:23;44.80;;;20.30;;
49422;SDS011;36998;51.974;20.150;2022-09-09T06:59:01;45.67;;;19.75;;
49422;SDS011;36998;51.974;20.150;2022-09-09T07:06:27;43.92;;;17.38;;
49422;SDS011;36998;51.974;20.150;2022-09-09T07:09:00;42.88;;;18.17;;
49422;SDS011;36998;51.974;20.150;2022-09-09T07:11:31;42.15;;;17.33;;
49422;SDS011;36998;51.974;20.150;2022-09-09T07:13:59;43.55;;;17.92;;
49422;SDS011;36998;51.974;20.150;2022-09-09T07:16:26;48.45;;;17.92;;
49422;SDS011;36998;51.974;20.150;2022-09-09T07:18:54;44.70;;;17.88;;
49422;SDS011;36998;51.974;20.150;2022-09-09T07:21:23;50.20;;;18.13;;
49422;SDS011;36998;51.974;20.150;2022-09-09T07:23:52;45.42;;;16.90;;
49422;SDS011;36998;51.974;20.150;2022-09-09T07:26:19;44.95;;;18.30;;
49422;SDS011;36998;51.974;20.150;2022-09-09T07:28:47;51.58;;;17.90;;
49422;SDS011;36998;51.974;20.150;2022-09-09T07:31:19;49.60;;;18.48;;
49422;SDS011;36998;51.974;20.150;2022-09-09T07:33:46;43.85;;;18.33;;
49422;SDS011;36998;51.974;20.150;2022-09-09T07:36:14;43.42;;;17.45;;
49422;SDS011;36998;51.974;20.150;2022-09-09T07:41:18;53.60;;;18.42;;
49422;SDS011;36998;51.974;20.150;2022-09-09T07:43:52;48.95;;;18.08;;
49422;SDS011;36998;51.974;20.150;2022-09-09T07:46:23;47.85;;;18.08;;
49422;SDS011;36998;51.974;20.150;2022-09-09T07:48:51;41.73;;;18.40;;
49422;SDS011;36998;51.974;20.150;2022-09-09T07:51:23;45.65;;;18.55;;
49422;SDS011;36998;51.974;20.150;2022-09-09T07:53:55;54.50;;;19.83;;
49422;SDS011;36998;51.974;20.150;2022-09-09T07:56:28;54.05;;;19.27;;
49422;SDS011;36998;51.974;20.150;2022-09-09T07:58:55;52.17;;;19.30;;
49422;SDS011;36998;51.974;20.150;2022-09-09T08:01:23;53.00;;;20.17;;
49422;SDS011;36998;51.974;20.150;2022-09-09T08:03:55;50.25;;;19.90;;
49422;SDS011;36998;51.974;20.150;2022-09-09T08:06:24;41.85;;;17.85;;
49422;SDS011;36998;51.974;20.150;2022-09-09T08:08:52;46.90;;;20.10;;
49422;SDS011;36998;51.974;20.150;2022-09-09T08:11:21;52.42;;;19.95;;
49422;SDS011;36998;51.974;20.150;2022-09-09T08:13:49;48.05;;;20.67;;
49422;SDS011;36998;51.974;20.150;2022-09-09T08:16:16;52.95;;;20.92;;
49422;SDS011;36998;51.974;20.150;2022-09-09T08:18:45;49.42;;;20.08;;
49422;SDS011;36998;51.974;20.150;2022-09-09T08:21:15;51.90;;;20.50;;
49422;SDS011;36998;51.974;20.150;2022-09-09T08:23:44;46.25;;;19.42;;
49422;SDS011;36998;51.974;20.150;2022-09-09T08:26:12;49.30;;;19.10;;
49422;SDS011;36998;51.974;20.150;2022-09-09T08:28:40;46.67;;;19.00;;
49422;SDS011;36998;51.974;20.150;2022-09-09T08:31:11;42.28;;;18.15;;
49422;SDS011;36998;51.974;20.150;2022-09-09T08:33:40;40.47;;;17.75;;
49422;SDS011;36998;51.974;20.150;2022-09-09T08:36:08;49.00;;;19.88;;
49422;SDS011;36998;51.974;20.150;2022-09-09T08:38:35;40.10;;;18.75;;
49422;SDS011;36998;51.974;20.150;2022-09-09T08:55:22;39.45;;;18.85;;
49422;SDS011;36998;51.974;20.150;2022-09-09T08:58:15;37.88;;;19.23;;
49422;SDS011;36998;51.974;20.150;2022-09-09T09:03:43;61.08;;;33.35;;
49422;SDS011;36998;51.974;20.150;2022-09-09T09:08:47;36.53;;;18.75;;
49422;SDS011;36998;51.974;20.150;2022-09-09T09:11:21;37.20;;;21.00;;
49422;SDS011;36998;51.974;20.150;2022-09-09T09:14:02;38.05;;;18.88;;
49422;SDS011;36998;51.974;20.150;2022-09-09T09:19:22;41.13;;;18.67;;
49422;SDS011;36998;51.974;20.150;2022-09-09T09:24:42;32.92;;;17.55;;
49422;SDS011;36998;51.974;20.150;2022-09-09T09:30:20;32.05;;;16.40;;
49422;SDS011;36998;51.974;20.150;2022-09-09T09:35:36;35.80;;;18.10;;
49422;SDS011;36998;51.974;20.150;2022-09-09T09:38:08;34.53;;;17.30;;
49422;SDS011;36998;51.974;20.150;2022-09-09T09:40:50;38.38;;;18.42;;
49422;SDS011;36998;51.974;20.150;2022-09-09T09:43:26;38.05;;;17.10;;
49422;SDS011;36998;51.974;20.150;2022-09-09T09:45:56;33.20;;;17.17;;
49422;SDS011;36998;51.974;20.150;2022-09-09T09:48:26;34.58;;;17.67;;
49422;SDS011;36998;51.974;20.150;2022-09-09T09:50:56;35.17;;;18.10;;
49422;SDS011;36998;51.974;20.150;2022-09-09T09:53:32;29.65;;;16.10;;
49422;SDS011;36998;51.974;20.150;2022-09-09T09:56:00;32.40;;;15.70;;
49422;SDS011;36998;51.974;20.150;2022-09-09T09:58:29;28.95;;;14.85;;
49422;SDS011;36998;51.974;20.150;2022-09-09T10:00:59;26.35;;;15.00;;
49422;SDS011;36998;51.974;20.150;2022-09-09T10:03:31;30.80;;;14.30;;
49422;SDS011;36998;51.974;20.150;2022-09-09T10:06:02;27.73;;;14.13;;
49422;SDS011;36998;51.974;20.150;2022-09-09T10:08:29;22.55;;;13.77;;
49422;SDS011;36998;51.974;20.150;2022-09-09T10:21:57;24.38;;;13.60;;
49422;SDS011;36998;51.974;20.150;2022-09-09T10:30:06;21.35;;;13.63;;
49422;SDS011;36998;51.974;20.150;2022-09-09T10:48:30;20.25;;;12.65;;
49422;SDS011;36998;51.974;20.150;2022-09-09T10:51:06;28.10;;;13.20;;
49422;SDS011;36998;51.974;20.150;2022-09-09T10:54:10;23.20;;;13.50;;
49422;SDS011;36998;51.974;20.150;2022-09-09T10:56:50;22.40;;;13.87;;
49422;SDS011;36998;51.974;20.150;2022-09-09T10:59:26;22.13;;;11.98;;
49422;SDS011;36998;51.974;20.150;2022-09-09T11:02:05;22.50;;;12.10;;
49422;SDS011;36998;51.974;20.150;2022-09-09T11:04:44;21.77;;;12.82;;
49422;SDS011;36998;51.974;20.150;2022-09-09T11:07:15;24.40;;;13.57;;
49422;SDS011;36998;51.974;20.150;2022-09-09T11:10:05;25.02;;;13.18;;
49422;SDS011;36998;51.974;20.150;2022-09-09T11:12:41;20.58;;;11.73;;
49422;SDS011;36998;51.974;20.150;2022-09-09T11:15:17;26.10;;;12.43;;
49422;SDS011;36998;51.974;20.150;2022-09-09T11:17:49;21.17;;;12.45;;
49422;SDS011;36998;51.974;20.150;2022-09-09T11:20:19;22.63;;;12.75;;
49422;SDS011;36998;51.974;20.150;2022-09-09T11:22:48;21.05;;;11.52;;
49422;SDS011;36998;51.974;20.150;2022-09-09T11:25:21;21.25;;;11.90;;
49422;SDS011;36998;51.974;20.150;2022-09-09T11:30:54;16.88;;;10.60;;
49422;SDS011;36998;51.974;20.150;2022-09-09T11:42:21;15.77;;;9.77;;
49422;SDS011;36998;51.974;20.150;2022-09-09T11:44:49;16.10;;;9.77;;
49422;SDS011;36998;51.974;20.150;2022-09-09T11:47:22;16.65;;;9.27;;
49422;SDS011;36998;51.974;20.150;2022-09-09T11:49:54;14.73;;;9.50;;
49422;SDS011;36998;51.974;20.150;2022-09-09T11:52:21;15.48;;;8.52;;
49422;SDS011;36998;51.974;20.150;2022-09-09T11:58:24;12.30;;;8.38;;
49422;SDS011;36998;51.974;20.150;2022-09-09T12:00:45;16.55;;;7.78;;
49422;SDS011;36998;51.974;20.150;2022-09-09T12:08:58;11.80;;;7.60;;
49422;SDS011;36998;51.974;20.150;2022-09-09T12:11:33;12.50;;;8.98;;
49422;SDS011;36998;51.974;20.150;2022-09-09T12:13:59;12.40;;;8.25;;
49422;SDS011;36998;51.974;20.150;2022-09-09T12:16:38;13.38;;;9.10;;
49422;SDS011;36998;51.974;20.150;2022-09-09T12:21:37;7.63;;;6.40;;
49422;SDS011;36998;51.974;20.150;2022-09-09T12:24:11;10.68;;;6.70;;
49422;SDS011;36998;51.974;20.150;2022-09-09T12:26:53;9.90;;;7.43;;
49422;SDS011;36998;51.974;20.150;2022-09-09T12:32:16;10.68;;;7.22;;
49422;SDS011;36998;51.974;20.150;2022-09-09T12:37:50;13.68;;;7.95;;
49422;SDS011;36998;51.974;20.150;2022-09-09T12:40:26;10.45;;;7.20;;
49422;SDS011;36998;51.974;20.150;2022-09-09T12:43:00;9.40;;;7.38;;
49422;SDS011;36998;51.974;20.150;2022-09-09T12:45:28;13.27;;;7.10;;
49422;SDS011;36998;51.974;20.150;2022-09-09T12:50:49;10.98;;;7.00;;
49422;SDS011;36998;51.974;20.150;2022-09-09T12:55:59;11.02;;;6.00;;
49422;SDS011;36998;51.974;20.150;2022-09-09T12:58:28;8.57;;;6.10;;
49422;SDS011;36998;51.974;20.150;2022-09-09T13:00:58;9.95;;;6.43;;
49422;SDS011;36998;51.974;20.150;2022-09-09T13:03:25;10.68;;;7.10;;
49422;SDS011;36998;51.974;20.150;2022-09-09T13:05:51;9.90;;;6.60;;
49422;SDS011;36998;51.974;20.150;2022-09-09T13:08:18;10.65;;;6.22;;
49422;SDS011;36998;51.974;20.150;2022-09-09T13:11:02;10.15;;;6.97;;
49422;SDS011;36998;51.974;20.150;2022-09-09T13:13:36;9.68;;;7.00;;
49422;SDS011;36998;51.974;20.150;2022-09-09T13:16:07;14.10;;;6.80;;
49422;SDS011;36998;51.974;20.150;2022-09-09T13:18:44;10.75;;;6.57;;
49422;SDS011;36998;51.974;20.150;2022-09-09T13:21:10;11.65;;;6.45;;
49422;SDS011;36998;51.974;20.150;2022-09-09T13:23:36;10.63;;;6.15;;
49422;SDS011;36998;51.974;20.150;2022-09-09T13:26:07;8.68;;;5.47;;
49422;SDS011;36998;51.974;20.150;2022-09-09T13:28:46;7.93;;;6.45;;
49422;SDS011;36998;51.974;20.150;2022-09-09T13:31:28;9.52;;;5.47;;
49422;SDS011;36998;51.974;20.150;2022-09-09T13:33:55;9.57;;;5.63;;
49422;SDS011;36998;51.974;20.150;2022-09-09T13:36:28;7.95;;;5.95;;
49422;SDS011;36998;51.974;20.150;2022-09-09T13:38:56;7.15;;;5.63;;
49422;SDS011;36998;51.974;20.150;2022-09-09T13:41:32;11.10;;;5.75;;
49422;SDS011;36998;51.974;20.150;2022-09-09T13:44:00;10.43;;;5.28;;
49422;SDS011;36998;51.974;20.150;2022-09-09T13:51:33;7.10;;;4.85;;
49422;SDS011;36998;51.974;20.150;2022-09-09T13:54:03;6.20;;;4.70;;
49422;SDS011;36998;51.974;20.150;2022-09-09T13:56:31;6.07;;;5.22;;
49422;SDS011;36998;51.974;20.150;2022-09-09T13:58:57;8.32;;;5.97;;
49422;SDS011;36998;51.974;20.150;2022-09-09T14:01:23;8.70;;;5.57;;
49422;SDS011;36998;51.974;20.150;2022-09-09T14:03:48;5.30;;;4.80;;
49422;SDS011;36998;51.974;20.150;2022-09-09T14:06:14;6.38;;;5.15;;
49422;SDS011;36998;51.974;20.150;2022-09-09T14:08:39;10.35;;;5.43;;
49422;SDS011;36998;51.974;20.150;2022-09-09T14:11:05;8.93;;;5.40;;
49422;SDS011;36998;51.974;20.150;2022-09-09T14:13:36;7.07;;;5.47;;
49422;SDS011;36998;51.974;20.150;2022-09-09T14:16:02;6.15;;;5.13;;
49422;SDS011;36998;51.974;20.150;2022-09-09T14:18:28;5.25;;;4.68;;
49422;SDS011;36998;51.974;20.150;2022-09-09T14:20:54;16.55;;;5.53;;
49422;SDS011;36998;51.974;20.150;2022-09-09T14:23:19;6.95;;;4.80;;
49422;SDS011;36998;51.974;20.150;2022-09-09T14:25:47;8.13;;;5.80;;
49422;SDS011;36998;51.974;20.150;2022-09-09T14:28:12;11.18;;;5.80;;
49422;SDS011;36998;51.974;20.150;2022-09-09T14:30:39;9.27;;;5.47;;
49422;SDS011;36998;51.974;20.150;2022-09-09T14:33:06;10.93;;;5.18;;
49422;SDS011;36998;51.974;20.150;2022-09-09T14:35:34;7.38;;;4.82;;
49422;SDS011;36998;51.974;20.150;2022-09-09T14:37:59;9.45;;;5.47;;
49422;SDS011;36998;51.974;20.150;2022-09-09T14:40:26;5.75;;;5.15;;
49422;SDS011;36998;51.974;20.150;2022-09-09T14:42:52;8.30;;;4.68;;
49422;SDS011;36998;51.974;20.150;2022-09-09T14:45:18;8.45;;;5.25;;
49422;SDS011;36998;51.974;20.150;2022-09-09T14:47:43;15.55;;;7.03;;
49422;SDS011;36998;51.974;20.150;2022-09-09T14:50:10;7.20;;;4.95;;
49422;SDS011;36998;51.974;20.150;2022-09-09T14:52:37;9.52;;;5.10;;
49422;SDS011;36998;51.974;20.150;2022-09-09T14:55:03;8.55;;;4.80;;
49422;SDS011;36998;51.974;20.150;2022-09-09T14:57:29;5.38;;;4.53;;
49422;SDS011;36998;51.974;20.150;2022-09-09T14:59:55;5.93;;;4.90;;
49422;SDS011;36998;51.974;20.150;2022-09-09T15:02:21;5.95;;;4.93;;
49422;SDS011;36998;51.974;20.150;2022-09-09T15:04:46;10.73;;;5.53;;
49422;SDS011;36998;51.974;20.150;2022-09-09T15:07:12;8.25;;;4.97;;
49422;SDS011;36998;51.974;20.150;2022-09-09T15:09:37;9.25;;;5.90;;
49422;SDS011;36998;51.974;20.150;2022-09-09T15:12:03;6.15;;;5.32;;
49422;SDS011;36998;51.974;20.150;2022-09-09T15:14:29;9.50;;;5.63;;
49422;SDS011;36998;51.974;20.150;2022-09-09T15:16:56;9.40;;;5.32;;
49422;SDS011;36998;51.974;20.150;2022-09-09T15:19:21;10.80;;;5.25;;
49422;SDS011;36998;51.974;20.150;2022-09-09T15:21:46;12.45;;;5.75;;
49422;SDS011;36998;51.974;20.150;2022-09-09T15:24:12;9.05;;;5.60;;
49422;SDS011;36998;51.974;20.150;2022-09-09T15:26:38;10.55;;;5.63;;
49422;SDS011;36998;51.974;20.150;2022-09-09T15:29:04;6.97;;;5.05;;
49422;SDS011;36998;51.974;20.150;2022-09-09T15:31:30;10.25;;;6.30;;
49422;SDS011;36998;51.974;20.150;2022-09-09T15:33:57;6.30;;;5.22;;
49422;SDS011;36998;51.974;20.150;2022-09-09T15:36:37;7.70;;;5.30;;
49422;SDS011;36998;51.974;20.150;2022-09-09T15:39:05;6.78;;;4.82;;
49422;SDS011;36998;51.974;20.150;2022-09-09T15:41:34;7.03;;;4.80;;
49422;SDS011;36998;51.974;20.150;2022-09-09T15:44:01;9.57;;;5.80;;
49422;SDS011;36998;51.974;20.150;2022-09-09T15:46:28;7.45;;;5.22;;
49422;SDS011;36998;51.974;20.150;2022-09-09T15:48:54;5.78;;;4.75;;
49422;SDS011;36998;51.974;20.150;2022-09-09T15:51:22;8.77;;;5.30;;
49422;SDS011;36998;51.974;20.150;2022-09-09T15:53:54;8.05;;;5.88;;
49422;SDS011;36998;51.974;20.150;2022-09-09T15:56:21;9.65;;;6.47;;
49422;SDS011;36998;51.974;20.150;2022-09-09T15:58:47;8.88;;;6.63;;
49422;SDS011;36998;51.974;20.150;2022-09-09T16:01:12;9.57;;;5.78;;
49422;SDS011;36998;51.974;20.150;2022-09-09T16:03:39;13.73;;;7.15;;
49422;SDS011;36998;51.974;20.150;2022-09-09T16:06:11;7.15;;;5.85;;
49422;SDS011;36998;51.974;20.150;2022-09-09T16:08:39;11.40;;;6.97;;
49422;SDS011;36998;51.974;20.150;2022-09-09T16:11:13;11.05;;;6.07;;
49422;SDS011;36998;51.974;20.150;2022-09-09T16:13:41;10.30;;;6.10;;
49422;SDS011;36998;51.974;20.150;2022-09-09T16:16:11;10.82;;;6.20;;
49422;SDS011;36998;51.974;20.150;2022-09-09T16:21:08;13.45;;;5.80;;
49422;SDS011;36998;51.974;20.150;2022-09-09T16:23:39;8.85;;;5.95;;
49422;SDS011;36998;51.974;20.150;2022-09-09T16:26:05;7.85;;;5.93;;
49422;SDS011;36998;51.974;20.150;2022-09-09T16:28:30;14.10;;;6.72;;
49422;SDS011;36998;51.974;20.150;2022-09-09T16:30:56;11.07;;;6.65;;
49422;SDS011;36998;51.974;20.150;2022-09-09T16:33:23;12.57;;;7.57;;
49422;SDS011;36998;51.974;20.150;2022-09-09T16:35:49;13.38;;;8.05;;
49422;SDS011;36998;51.974;20.150;2022-09-09T16:38:14;12.70;;;7.68;;
49422;SDS011;36998;51.974;20.150;2022-09-09T16:40:40;13.38;;;8.73;;
49422;SDS011;36998;51.974;20.150;2022-09-09T16:43:08;18.55;;;9.07;;
49422;SDS011;36998;51.974;20.150;2022-09-09T16:45:44;16.02;;;9.60;;
49422;SDS011;36998;51.974;20.150;2022-09-09T16:48:10;16.23;;;9.32;;
49422;SDS011;36998;51.974;20.150;2022-09-09T16:50:36;17.05;;;10.90;;
49422;SDS011;36998;51.974;20.150;2022-09-09T16:53:03;14.68;;;10.93;;
49422;SDS011;36998;51.974;20.150;2022-09-09T16:55:31;20.70;;;11.80;;
49422;SDS011;36998;51.974;20.150;2022-09-09T16:57:57;21.65;;;11.98;;
49422;SDS011;36998;51.974;20.150;2022-09-09T17:00:22;23.10;;;12.85;;
49422;SDS011;36998;51.974;20.150;2022-09-09T17:02:48;21.05;;;12.95;;
49422;SDS011;36998;51.974;20.150;2022-09-09T17:05:14;22.77;;;13.02;;
49422;SDS011;36998;51.974;20.150;2022-09-09T17:07:39;21.65;;;13.90;;
49422;SDS011;36998;51.974;20.150;2022-09-09T17:10:05;23.80;;;14.45;;